Terminal Aerodrome Forecast
Issued by NWS

Home | Current Version | Previous Version | Text Only | Print | Product List | Glossary On
Versions: 1 2 3 4 5 6 7 8 9 10 11 12 13 14 15 16 17 18 19 20
000
FTUS44 KLIX 180540 AAA
TAFMCB
TAF AMD
KMCB 180540Z 1806/1906 18006KT P6SM FEW006 SCT250
     FM181000 19006KT 5SM BR SCT003 BKN025
     FM181400 20012KT P6SM SCT008 BKN015 PROB30 1818/1822 4SM -SHRA
      BKN015 BKN020
     FM182200 24014KT P6SM SCT015 BKN045 PROB30 1822/1824 4SM -SHRA
      BKN015
     FM190000 27009KT P6SM SCT010 BKN050 PROB30 1900/1902 4SM -SHRA
      BKN008 BKN010
     FM190400 35013KT P6SM SCT250=

USA.gov is the U.S. government's official web portal to all federal, state and local government web resources and services.